createdAt,value
2022-09-18T00:00:59.028Z,4.60
2022-09-18T00:06:19.896Z,3.50
2022-09-18T00:11:28.605Z,4.60
2022-09-18T00:16:39.525Z,2.40
2022-09-18T00:21:49.098Z,4.60
2022-09-18T00:26:56.016Z,3.40
2022-09-18T00:37:08.890Z,4.30
2022-09-18T00:42:24.070Z,3.20
2022-09-18T00:47:34.034Z,4.40
2022-09-18T00:52:52.913Z,3.30
2022-09-18T00:58:09.987Z,3.30
2022-09-18T01:03:17.187Z,3.40
2022-09-18T01:08:41.807Z,3.30
2022-09-18T01:14:01.339Z,2.90
2022-09-18T01:19:27.356Z,4.20
2022-09-18T01:24:47.063Z,4.10
2022-09-18T01:30:02.070Z,3.70
2022-09-18T01:35:41.526Z,4.00
2022-09-18T01:41:05.086Z,2.90
2022-09-18T01:46:20.151Z,4.30
2022-09-18T01:51:33.009Z,3.80
2022-09-18T01:56:45.408Z,3.50
2022-09-18T02:01:56.023Z,4.20
2022-09-18T02:07:14.569Z,3.70
2022-09-18T02:12:25.576Z,4.20
2022-09-18T02:17:37.262Z,3.40
2022-09-18T02:22:48.934Z,3.60
2022-09-18T02:27:59.997Z,3.00
2022-09-18T02:33:26.168Z,3.80
2022-09-18T02:44:21.045Z,4.00
2022-09-18T02:49:38.078Z,3.80
2022-09-18T02:54:50.714Z,3.90
2022-09-18T03:00:03.348Z,3.70
2022-09-18T03:05:11.651Z,4.10
2022-09-18T03:10:18.870Z,3.90
2022-09-18T03:15:27.376Z,3.70
2022-09-18T03:20:34.654Z,2.80
2022-09-18T03:25:43.540Z,4.20
2022-09-18T03:30:53.496Z,4.30
2022-09-18T03:36:00.462Z,3.90
2022-09-18T03:46:15.704Z,5.70
2022-09-18T03:51:23.108Z,4.20
2022-09-18T03:56:31.541Z,4.10
2022-09-18T04:01:38.477Z,5.80
2022-09-18T04:11:53.649Z,5.00
2022-09-18T04:17:00.756Z,4.90
2022-09-18T04:22:08.061Z,5.50
2022-09-18T04:32:20.771Z,6.10
2022-09-18T04:37:30.791Z,4.90
2022-09-18T04:42:37.855Z,4.90
2022-09-18T04:47:46.891Z,4.70
2022-09-18T04:52:53.715Z,6.30
2022-09-18T04:58:00.575Z,4.30
2022-09-18T05:03:09.850Z,4.20
2022-09-18T05:08:17.498Z,4.00
2022-09-18T05:13:24.729Z,3.30
2022-09-18T05:18:35.136Z,2.90
2022-09-18T05:23:42.236Z,3.90
2022-09-18T05:28:51.631Z,3.80
2022-09-18T05:33:58.917Z,3.80
2022-09-18T05:39:06.635Z,5.50
2022-09-18T05:49:19.160Z,4.60
2022-09-18T05:59:33.437Z,5.30
2022-09-18T06:09:46.104Z,5.70
2022-09-18T06:14:53.100Z,3.80
2022-09-18T06:20:00.359Z,4.20
2022-09-18T06:25:09.361Z,5.70
2022-09-18T06:30:17.176Z,5.40
2022-09-18T06:35:24.981Z,4.70
2022-09-18T06:40:33.330Z,5.00
2022-09-18T06:45:40.242Z,4.80
2022-09-18T06:53:30.414Z,4.00
2022-09-18T06:58:37.559Z,5.10
2022-09-18T07:08:52.917Z,4.50
2022-09-18T07:13:59.832Z,5.20
2022-09-18T07:19:08.976Z,3.90
2022-09-18T07:24:18.324Z,3.00
2022-09-18T07:29:26.955Z,3.60
2022-09-18T07:34:33.893Z,4.10
2022-09-18T07:44:46.721Z,3.60
2022-09-18T07:49:53.822Z,3.60
2022-09-18T07:55:00.960Z,4.10
2022-09-18T08:00:11.375Z,3.70
2022-09-18T08:05:18.851Z,3.00
2022-09-18T08:10:26.606Z,2.50
2022-09-18T08:15:34.313Z,3.20
2022-09-18T08:20:41.931Z,2.30
2022-09-18T08:25:49.953Z,2.20
2022-09-18T08:30:58.279Z,2.30
2022-09-18T08:36:05.816Z,3.10
2022-09-18T08:41:25.515Z,2.60
2022-09-18T08:46:39.371Z,2.30
2022-09-18T08:51:53.505Z,2.20
2022-09-18T08:57:06.526Z,2.40
2022-09-18T09:02:46.654Z,1.90
2022-09-18T09:08:17.514Z,1.90
2022-09-18T09:13:50.856Z,2.40
2022-09-18T09:19:02.375Z,2.00
2022-09-18T09:24:22.222Z,1.90
2022-09-18T09:29:32.786Z,1.70
2022-09-18T09:34:45.713Z,1.20
2022-09-18T09:39:58.962Z,1.60
2022-09-18T09:45:15.889Z,1.30
2022-09-18T09:50:38.532Z,2.10
2022-09-18T09:55:56.765Z,2.10
2022-09-18T10:01:11.932Z,1.00
2022-09-18T10:06:35.945Z,1.80
2022-09-18T10:11:48.711Z,1.90
2022-09-18T10:16:57.959Z,1.70
2022-09-18T10:22:08.801Z,1.40
2022-09-18T10:27:17.518Z,1.50
2022-09-18T10:32:39.294Z,1.40
2022-09-18T10:37:46.189Z,1.30
2022-09-18T10:48:15.936Z,2.00
2022-09-18T10:53:32.216Z,1.60
2022-09-18T10:58:39.620Z,1.30
2022-09-18T11:03:50.105Z,1.60
2022-09-18T11:09:00.714Z,1.60
2022-09-18T11:14:17.985Z,2.50
2022-09-18T11:24:37.579Z,1.50
2022-09-18T11:29:44.694Z,1.90
2022-09-18T11:34:55.044Z,0.70
2022-09-18T11:40:26.585Z,1.30
2022-09-18T11:45:54.041Z,1.80
2022-09-18T11:51:04.630Z,1.20
2022-09-18T11:56:16.203Z,1.30
2022-09-18T12:01:32.189Z,1.30
2022-09-18T12:06:52.470Z,1.30
2022-09-18T12:12:05.429Z,1.10
2022-09-18T12:17:19.359Z,1.00
2022-09-18T12:22:30.635Z,1.00
2022-09-18T12:27:42.470Z,1.50
2022-09-18T12:33:07.556Z,1.60
2022-09-18T12:38:28.514Z,1.20
2022-09-18T12:43:56.905Z,1.50
2022-09-18T12:49:32.808Z,1.80
2022-09-18T12:54:53.416Z,1.30
2022-09-18T13:00:07.397Z,1.00
2022-09-18T13:05:19.757Z,1.50
2022-09-18T13:10:31.192Z,1.30
2022-09-18T13:15:45.070Z,1.80
2022-09-18T13:20:54.314Z,1.00
2022-09-18T13:26:03.210Z,0.70
2022-09-18T13:36:28.587Z,0.80
2022-09-18T13:41:47.506Z,0.90
2022-09-18T13:46:57.442Z,1.00
2022-09-18T13:52:29.980Z,1.40
2022-09-18T13:57:37.886Z,1.10
2022-09-18T14:02:44.777Z,1.40
2022-09-18T14:08:36.216Z,1.10
2022-09-18T14:13:52.045Z,1.40
2022-09-18T14:19:05.685Z,1.10
2022-09-18T14:24:56.584Z,1.40
2022-09-18T14:30:15.401Z,1.20
2022-09-18T14:35:29.775Z,1.20
2022-09-18T14:40:44.093Z,1.30
2022-09-18T14:45:51.488Z,1.90
2022-09-18T14:51:17.811Z,0.80
2022-09-18T14:56:29.630Z,1.90
2022-09-18T15:01:39.015Z,1.40
2022-09-18T15:06:51.139Z,1.20
2022-09-18T15:12:02.597Z,1.60
2022-09-18T15:17:20.685Z,2.00
2022-09-18T15:22:28.745Z,1.30
2022-09-18T15:27:36.223Z,2.30
2022-09-18T15:32:47.724Z,2.10
2022-09-18T15:38:02.544Z,2.10
2022-09-18T15:43:41.306Z,2.70
2022-09-18T15:48:49.395Z,1.20
2022-09-18T15:54:07.775Z,2.60
2022-09-18T15:59:26.417Z,2.30
2022-09-18T16:04:35.143Z,3.10
2022-09-18T16:09:45.320Z,2.80
2022-09-18T16:15:03.143Z,2.40
2022-09-18T16:20:36.611Z,2.60
2022-09-18T16:25:45.443Z,3.20
2022-09-18T16:30:56.079Z,3.20
2022-09-18T16:36:08.271Z,3.50
2022-09-18T16:41:15.197Z,3.20
2022-09-18T16:51:33.697Z,3.50
2022-09-18T16:56:44.840Z,4.70
2022-09-18T17:02:03.289Z,4.50
2022-09-18T17:07:11.472Z,4.50
2022-09-18T17:12:18.695Z,3.50
2022-09-18T17:17:25.879Z,3.70
2022-09-18T17:22:33.886Z,4.40
2022-09-18T17:27:43.716Z,3.80
2022-09-18T17:32:51.625Z,2.20
2022-09-18T17:38:01.062Z,4.70
2022-09-18T17:43:08.326Z,4.80
2022-09-18T17:48:16.286Z,3.60
2022-09-18T17:53:23.889Z,4.70
2022-09-18T17:58:32.446Z,4.40
2022-09-18T18:03:39.880Z,4.60
2022-09-18T18:08:47.445Z,4.10
2022-09-18T18:13:58.044Z,4.50
2022-09-18T18:19:12.401Z,4.30
2022-09-18T18:24:20.906Z,5.40
2022-09-18T18:29:28.304Z,5.40
2022-09-18T18:34:39.155Z,4.50
2022-09-18T18:39:47.190Z,4.60
2022-09-18T18:44:55.514Z,5.70
2022-09-18T18:50:03.867Z,4.90
2022-09-18T18:55:12.198Z,5.70
2022-09-18T19:00:27.661Z,4.50
2022-09-18T19:05:35.489Z,4.80
2022-09-18T19:10:43.625Z,2.80
2022-09-18T19:15:55.562Z,4.50
2022-09-18T19:21:03.929Z,4.70
2022-09-18T19:26:16.452Z,5.60
2022-09-18T19:31:27.141Z,4.60
2022-09-18T19:36:40.297Z,5.30
2022-09-18T19:41:52.704Z,5.60
2022-09-18T19:47:03.719Z,6.00
2022-09-18T19:52:18.119Z,6.70
2022-09-18T19:57:27.725Z,6.20
2022-09-18T20:02:34.912Z,7.10
2022-09-18T20:07:42.528Z,7.00
2022-09-18T20:12:52.728Z,7.70
2022-09-18T20:18:03.813Z,7.10
2022-09-18T20:23:14.299Z,7.30
2022-09-18T20:28:24.269Z,7.00
2022-09-18T20:33:31.827Z,7.70
2022-09-18T20:38:41.038Z,7.30
2022-09-18T20:43:53.418Z,7.70
2022-09-18T20:49:03.533Z,6.10
2022-09-18T20:54:11.799Z,5.50
2022-09-18T20:59:21.190Z,7.10
2022-09-18T21:04:30.854Z,6.50
2022-09-18T21:09:37.671Z,6.80
2022-09-18T21:14:44.806Z,5.90
2022-09-18T21:25:03.308Z,5.90
2022-09-18T21:30:15.560Z,7.00
2022-09-18T21:35:23.727Z,6.70
2022-09-18T21:40:32.031Z,5.80
2022-09-18T21:45:40.618Z,6.50
2022-09-18T21:50:51.789Z,6.20
2022-09-18T21:56:12.202Z,6.70
2022-09-18T22:01:28.410Z,6.20
2022-09-18T22:06:39.813Z,5.40
2022-09-18T22:11:48.042Z,6.50
2022-09-18T22:16:57.682Z,6.70
2022-09-18T22:22:05.191Z,7.50
2022-09-18T22:27:15.269Z,6.20
2022-09-18T22:43:15.870Z,7.50
2022-09-18T22:48:22.738Z,6.60
2022-09-18T22:53:32.503Z,6.50
2022-09-18T22:58:42.956Z,6.40
2022-09-18T23:03:51.232Z,7.10
2022-09-18T23:18:56.241Z,6.10
2022-09-18T23:24:08.910Z,5.60
2022-09-18T23:29:20.676Z,7.00
2022-09-18T23:34:30.618Z,6.80
2022-09-18T23:39:37.645Z,7.00
2022-09-18T23:44:45.781Z,7.30
2022-09-18T23:49:55.942Z,7.10
2022-09-18T23:55:08.567Z,7.00
